Skip Navigation Links
NOAA logo - Click to go to the NOAA homepage
NOAA's National Weather Service
Alaska Aviation Weather Unit
  NWS logo - Click to go to the NWS homepage
Left Navbar Graphic     08 AKDT = 16 GMT

   
NOAA is celebrating 200 years of science, service, and stewardship. Visit the NOAA 200th celebration Web site to learn more.
USA.gov is the U.S. Government's official Web portal to all Federal, state and local government Web resources and services.
Facebook
NWS on Facebook

Important Change Regarding the AAWU Web Presence

 

Over the last several months, the AAWU has been working to navigate its webpages to a nationally supported server. Security, as well as other needs, have necessitated the change.  In the process, we have made an effort to enhance the functionality of our website, as well as some of our products. As of June 20, 2017, aawu.arh.noaa.gov will be discontinued. The new AAWU web address is weather.gov/aawu. It is now live and will run in-parallel with the old site until it is discontinued. Please send any feedback or questions regarding the new webpages to nws.ar.aawu.webauthors@noaa.gov.  Thank you for your patience during this time of transition.
AAWU Home :: Display TAF Add Bookmark
TAF PAUN 291124Z 2912/3012 VRB06KT P6SM SCT050 BKN100
     FM291800 32010KT P6SM FEW050 SCT100=

METAR PAUN 291056Z AUTO 00000KT 10SM CLR 03/02 A2982 RMK AO2 SLP101 T00330022= METAR PAUN 291156Z AUTO 00000KT 6SM BR CLR 03/02 A2981 RMK AO2 SLP100 70002 T00280022 10089 20022 50004= METAR PAUN 291256Z AUTO 20003KT 10SM CLR 04/03 A2981 RMK AO2 SLP099 T00390028= METAR PAUN 291356Z AUTO 00000KT 10SM CLR 02/02 A2981 RMK AO2 SLP100 T00220017 FZRANO= METAR PAUN 291456Z AUTO 20003KT 10SM CLR 04/03 A2981 RMK AO2 SLP099 T00390028 58001= SPECI PAUN 291510Z AUTO 23003KT 10SM SCT007 04/03 A2981 RMK AO2= SPECI PAUN 291520Z AUTO 00000KT 10SM BKN007 04/03 A2981 RMK AO2= SPECI PAUN 291529Z AUTO 00000KT 10SM SCT007 04/03 A2981 RMK AO2= SPECI PAUN 291536Z AUTO 00000KT 10SM BKN005 04/03 A2981 RMK AO2 CIG 004V009= METAR PAUN 291556Z AUTO 00000KT 10SM OVC005 04/03 A2981 RMK AO2 SLP100 T00390028= SPECI PAUN 291611Z AUTO 00000KT 10SM OVC003 04/03 A2981 RMK AO2= SPECI PAUN 291635Z AUTO 22007KT 1 1/2SM BR OVC003 04/04 A2981 RMK AO2 VIS 1/4V5= SPECI PAUN 291637Z AUTO 20006KT 1/2SM FG OVC003 04/04 A2981 RMK AO2 VIS 1/4V5= SPECI PAUN 291645Z AUTO 21007KT 1/4SM FG OVC003 04/04 A2981 RMK AO2=
 Alaska TAF Map

NOAA's National Weather Service
Alaska Aviation Weather Unit
6930 Sand Lake Road
Anchorage, AK 99502-1845
Disclaimer
Credits
Glossary
Privacy Policy
About Us
Career Opportunities
Contact AAWU Internet Services Site last modified: April, 17th 2012